Airfield :







YOU CAN JOIN US ON...

 
LOGIN :

Register | Disclaimer

   EN    FR    IT 

 









Legend :    VFR   Marginal VFR   IFR   Intensive IFR   Very Intensive IFR
Visi :
Ceiling :
>= 8 km
>= 3000ft
5 to 8 km
1000 to 3000 ft
1500m to 5 km
500 to 1000 ft
800 to 1500m
200 to 500 ft
< 800m
< 200 ft
Symbols :   Thunderstorms  Fog  Heavy snow  Heavy precipitations  Wind > 20 kt







- Airport Elevation : 1009 ft
- IATA code : ORH


KORH - Worcester Regional

CURRENT METAR :
  • 191254Z 22016G24KT 10SM FEW040 OVC100 15/09 A3008 RMK AO2 SLP187 T01500089

EXPIRED METARs :
  • 191154Z 21012KT 10SM CLR 13/08 A3008 RMK AO2 SLP186 T01280083 10128 20089 50001
  • 191054Z 20010KT 10SM CLR 10/08 A3008 RMK AO2 SLP186 T01000078

TAF KORH
Valid from the 19 at 12:00 until the 20 at 12:00 UTC


191121Z 1912/2012 20010KT P6SM SCT060 BKN150
TEMPO 1912/1914 4SM SHRA
FM191500 21013G25KT P6SM BKN100
FM192000 21013G26KT P6SM SCT080
FM200000 21012KT P6SM OVC035
FM200300 21008KT P6SM OVC008
FM200500 21009KT 4SM BR OVC008
FM200900 22008KT 1/2SM FG OVC008
FM201100 22008KT 3SM -SHRA BR OVC008
KZBW FIR / North America



MET'MAP, your aeronautical weather chart ! - Copyright ORBIFLY December 2007 - Disclaimer

ORBIFLY MET'MAP TEAM :

Programming & Development : Alexandra Zaïnal
Concept & Development : Baudouin d'Aumeries
Co-Development & Prog : Marc-Olivier Méhu
Technical & hardware support : Manuel Goepfert

Contact : metmap@orbifly.com




SOURCES & CREDITS :

   NOAA